sensor_id;sensor_type;location;lat;lon;timestamp;pressure;altitude;pressure_sealevel;temperature;humidity
19884;BME280;10104;50.732;10.174;2023-04-01T00:00:40;96106.91;;;9.43;100.00
19884;BME280;10104;50.732;10.174;2023-04-01T00:03:02;96109.66;;;9.36;100.00
19884;BME280;10104;50.732;10.174;2023-04-01T00:05:23;96100.13;;;9.35;100.00
19884;BME280;10104;50.732;10.174;2023-04-01T00:07:46;96106.13;;;9.42;100.00
19884;BME280;10104;50.732;10.174;2023-04-01T00:10:09;96103.25;;;9.44;100.00
19884;BME280;10104;50.732;10.174;2023-04-01T00:12:31;96097.69;;;9.33;100.00
19884;BME280;10104;50.732;10.174;2023-04-01T00:14:53;96091.50;;;9.40;100.00
19884;BME280;10104;50.732;10.174;2023-04-01T00:17:14;96092.69;;;9.44;100.00
19884;BME280;10104;50.732;10.174;2023-04-01T00:19:36;96094.47;;;9.31;100.00
19884;BME280;10104;50.732;10.174;2023-04-01T00:21:58;96082.75;;;9.27;100.00
19884;BME280;10104;50.732;10.174;2023-04-01T00:24:20;96091.25;;;9.29;100.00
19884;BME280;10104;50.732;10.174;2023-04-01T00:26:41;96085.84;;;9.24;100.00
19884;BME280;10104;50.732;10.174;2023-04-01T00:29:03;96092.16;;;9.23;100.00
19884;BME280;10104;50.732;10.174;2023-04-01T00:31:25;96089.28;;;9.25;100.00
19884;BME280;10104;50.732;10.174;2023-04-01T00:33:46;96095.13;;;9.27;100.00
19884;BME280;10104;50.732;10.174;2023-04-01T00:36:10;96096.16;;;9.26;100.00
19884;BME280;10104;50.732;10.174;2023-04-01T00:38:32;96093.97;;;9.23;100.00
19884;BME280;10104;50.732;10.174;2023-04-01T00:40:57;96086.28;;;9.21;100.00
19884;BME280;10104;50.732;10.174;2023-04-01T00:43:20;96095.81;;;9.22;100.00
19884;BME280;10104;50.732;10.174;2023-04-01T00:45:43;96101.59;;;9.31;100.00
19884;BME280;10104;50.732;10.174;2023-04-01T00:48:08;96095.72;;;9.29;100.00
19884;BME280;10104;50.732;10.174;2023-04-01T00:50:32;96083.53;;;9.28;100.00
19884;BME280;10104;50.732;10.174;2023-04-01T00:52:54;96092.28;;;9.28;100.00
19884;BME280;10104;50.732;10.174;2023-04-01T00:55:16;96081.94;;;9.27;100.00
19884;BME280;10104;50.732;10.174;2023-04-01T00:57:42;96095.00;;;9.22;100.00
19884;BME280;10104;50.732;10.174;2023-04-01T01:00:09;96099.34;;;9.16;100.00
19884;BME280;10104;50.732;10.174;2023-04-01T01:02:32;96087.91;;;9.22;100.00
19884;BME280;10104;50.732;10.174;2023-04-01T01:04:55;96082.47;;;9.17;100.00
19884;BME280;10104;50.732;10.174;2023-04-01T01:07:23;96086.38;;;9.15;100.00
19884;BME280;10104;50.732;10.174;2023-04-01T01:10:06;96093.25;;;9.16;100.00
19884;BME280;10104;50.732;10.174;2023-04-01T01:12:56;96089.59;;;9.17;100.00
19884;BME280;10104;50.732;10.174;2023-04-01T01:15:25;96087.22;;;9.27;100.00
19884;BME280;10104;50.732;10.174;2023-04-01T01:28:44;96092.44;;;9.15;100.00
19884;BME280;10104;50.732;10.174;2023-04-01T01:34:22;96092.31;;;9.10;100.00
19884;BME280;10104;50.732;10.174;2023-04-01T01:36:53;96084.06;;;9.07;100.00
19884;BME280;10104;50.732;10.174;2023-04-01T01:39:17;96081.34;;;9.13;100.00
19884;BME280;10104;50.732;10.174;2023-04-01T01:41:42;96077.50;;;9.09;100.00
19884;BME280;10104;50.732;10.174;2023-04-01T01:44:07;96077.88;;;9.13;100.00
19884;BME280;10104;50.732;10.174;2023-04-01T01:46:30;96087.50;;;9.07;100.00
19884;BME280;10104;50.732;10.174;2023-04-01T01:48:53;96081.75;;;9.10;100.00
19884;BME280;10104;50.732;10.174;2023-04-01T01:51:16;96081.63;;;9.05;100.00
19884;BME280;10104;50.732;10.174;2023-04-01T01:53:37;96078.78;;;9.07;100.00
19884;BME280;10104;50.732;10.174;2023-04-01T01:55:59;96085.13;;;9.17;100.00
19884;BME280;10104;50.732;10.174;2023-04-01T01:58:30;96079.75;;;9.24;100.00
19884;BME280;10104;50.732;10.174;2023-04-01T02:01:02;96081.47;;;9.18;100.00
19884;BME280;10104;50.732;10.174;2023-04-01T02:03:27;96088.19;;;9.14;100.00
19884;BME280;10104;50.732;10.174;2023-04-01T02:05:52;96085.59;;;9.26;100.00
19884;BME280;10104;50.732;10.174;2023-04-01T02:08:22;96092.59;;;9.20;100.00
19884;BME280;10104;50.732;10.174;2023-04-01T02:10:56;96089.94;;;9.20;100.00
19884;BME280;10104;50.732;10.174;2023-04-01T02:13:27;96090.69;;;9.09;100.00
19884;BME280;10104;50.732;10.174;2023-04-01T02:15:53;96081.88;;;9.15;100.00
19884;BME280;10104;50.732;10.174;2023-04-01T02:18:18;96077.06;;;9.12;100.00
19884;BME280;10104;50.732;10.174;2023-04-01T02:20:43;96074.56;;;9.17;100.00
19884;BME280;10104;50.732;10.174;2023-04-01T02:23:06;96070.59;;;9.08;100.00
19884;BME280;10104;50.732;10.174;2023-04-01T02:25:33;96070.56;;;9.26;100.00
19884;BME280;10104;50.732;10.174;2023-04-01T02:27:58;96074.56;;;9.17;100.00
19884;BME280;10104;50.732;10.174;2023-04-01T02:30:20;96075.81;;;9.15;100.00
19884;BME280;10104;50.732;10.174;2023-04-01T02:32:42;96068.13;;;9.13;100.00
19884;BME280;10104;50.732;10.174;2023-04-01T02:35:09;96079.34;;;9.09;100.00
19884;BME280;10104;50.732;10.174;2023-04-01T02:37:32;96078.69;;;9.13;100.00
19884;BME280;10104;50.732;10.174;2023-04-01T02:40:00;96071.28;;;9.04;100.00
19884;BME280;10104;50.732;10.174;2023-04-01T02:42:21;96073.28;;;9.20;100.00
19884;BME280;10104;50.732;10.174;2023-04-01T02:44:43;96077.94;;;9.24;100.00
19884;BME280;10104;50.732;10.174;2023-04-01T02:47:05;96081.00;;;9.21;100.00
19884;BME280;10104;50.732;10.174;2023-04-01T02:49:26;96078.22;;;9.16;100.00
19884;BME280;10104;50.732;10.174;2023-04-01T02:51:48;96073.84;;;9.10;100.00
19884;BME280;10104;50.732;10.174;2023-04-01T02:54:09;96078.31;;;9.10;100.00
19884;BME280;10104;50.732;10.174;2023-04-01T02:56:31;96079.03;;;9.17;100.00
19884;BME280;10104;50.732;10.174;2023-04-01T02:58:53;96087.31;;;9.20;100.00
19884;BME280;10104;50.732;10.174;2023-04-01T03:01:15;96079.03;;;9.17;100.00
19884;BME280;10104;50.732;10.174;2023-04-01T03:03:37;96084.75;;;9.14;100.00
19884;BME280;10104;50.732;10.174;2023-04-01T03:06:04;96081.03;;;9.03;100.00
19884;BME280;10104;50.732;10.174;2023-04-01T03:08:26;96081.25;;;9.02;100.00
19884;BME280;10104;50.732;10.174;2023-04-01T03:10:47;96088.00;;;8.98;100.00
19884;BME280;10104;50.732;10.174;2023-04-01T03:13:09;96092.50;;;8.97;100.00
19884;BME280;10104;50.732;10.174;2023-04-01T03:15:30;96096.97;;;8.97;100.00
19884;BME280;10104;50.732;10.174;2023-04-01T03:17:52;96096.28;;;9.01;100.00
19884;BME280;10104;50.732;10.174;2023-04-01T03:20:15;96096.28;;;9.01;100.00
19884;BME280;10104;50.732;10.174;2023-04-01T03:22:37;96104.13;;;9.08;100.00
19884;BME280;10104;50.732;10.174;2023-04-01T03:25:02;96088.16;;;9.03;100.00
19884;BME280;10104;50.732;10.174;2023-04-01T03:27:24;96094.53;;;9.13;100.00
19884;BME280;10104;50.732;10.174;2023-04-01T03:29:45;96092.19;;;9.05;100.00
19884;BME280;10104;50.732;10.174;2023-04-01T03:32:07;96091.59;;;9.03;100.00
19884;BME280;10104;50.732;10.174;2023-04-01T03:34:28;96091.81;;;9.02;100.00
19884;BME280;10104;50.732;10.174;2023-04-01T03:36:51;96094.03;;;9.05;100.00
19884;BME280;10104;50.732;10.174;2023-04-01T03:39:13;96110.22;;;9.08;100.00
19884;BME280;10104;50.732;10.174;2023-04-01T03:41:36;96095.09;;;9.15;100.00
19884;BME280;10104;50.732;10.174;2023-04-01T03:43:58;96105.53;;;9.10;100.00
19884;BME280;10104;50.732;10.174;2023-04-01T03:46:19;96097.00;;;9.08;100.00
19884;BME280;10104;50.732;10.174;2023-04-01T03:48:41;96095.97;;;9.09;100.00
19884;BME280;10104;50.732;10.174;2023-04-01T03:51:07;96111.59;;;9.11;100.00
19884;BME280;10104;50.732;10.174;2023-04-01T03:53:28;96108.38;;;9.09;100.00
19884;BME280;10104;50.732;10.174;2023-04-01T03:55:50;96099.50;;;9.03;100.00
19884;BME280;10104;50.732;10.174;2023-04-01T03:58:14;96115.28;;;8.91;100.00
19884;BME280;10104;50.732;10.174;2023-04-01T04:00:36;96101.00;;;8.99;100.00
19884;BME280;10104;50.732;10.174;2023-04-01T04:02:58;96100.88;;;8.94;100.00
19884;BME280;10104;50.732;10.174;2023-04-01T04:05:20;96108.91;;;8.99;100.00
19884;BME280;10104;50.732;10.174;2023-04-01T04:07:41;96108.19;;;8.92;100.00
19884;BME280;10104;50.732;10.174;2023-04-01T04:10:03;96110.91;;;8.85;100.00
19884;BME280;10104;50.732;10.174;2023-04-01T04:12:24;96115.50;;;8.90;100.00
19884;BME280;10104;50.732;10.174;2023-04-01T04:14:46;96101.44;;;8.96;100.00
19884;BME280;10104;50.732;10.174;2023-04-01T04:17:10;96105.53;;;8.92;100.00
19884;BME280;10104;50.732;10.174;2023-04-01T04:19:37;96108.53;;;8.96;100.00
19884;BME280;10104;50.732;10.174;2023-04-01T04:21:58;96111.41;;;8.94;100.00
19884;BME280;10104;50.732;10.174;2023-04-01T04:24:22;96107.09;;;9.00;100.00
19884;BME280;10104;50.732;10.174;2023-04-01T04:26:44;96110.00;;;8.91;100.00
19884;BME280;10104;50.732;10.174;2023-04-01T04:29:05;96111.50;;;8.87;100.00
19884;BME280;10104;50.732;10.174;2023-04-01T04:31:27;96113.88;;;8.89;100.00
19884;BME280;10104;50.732;10.174;2023-04-01T04:33:48;96110.75;;;8.99;100.00
19884;BME280;10104;50.732;10.174;2023-04-01T04:36:10;96105.41;;;8.87;100.00
19884;BME280;10104;50.732;10.174;2023-04-01T04:38:31;96111.41;;;8.94;100.00
19884;BME280;10104;50.732;10.174;2023-04-01T04:40:53;96107.16;;;8.93;100.00
19884;BME280;10104;50.732;10.174;2023-04-01T04:43:16;96108.03;;;8.87;100.00
19884;BME280;10104;50.732;10.174;2023-04-01T04:45:38;96114.00;;;8.82;100.00
19884;BME280;10104;50.732;10.174;2023-04-01T04:48:00;96112.72;;;8.85;100.00
19884;BME280;10104;50.732;10.174;2023-04-01T04:50:22;96099.31;;;8.86;100.00
19884;BME280;10104;50.732;10.174;2023-04-01T04:52:43;96111.91;;;8.84;100.00
19884;BME280;10104;50.732;10.174;2023-04-01T04:55:05;96106.50;;;8.79;100.00
19884;BME280;10104;50.732;10.174;2023-04-01T04:57:27;96106.66;;;8.84;100.00
19884;BME280;10104;50.732;10.174;2023-04-01T04:59:48;96106.09;;;8.82;100.00
19884;BME280;10104;50.732;10.174;2023-04-01T05:02:10;96106.84;;;8.83;100.00
19884;BME280;10104;50.732;10.174;2023-04-01T05:04:36;96114.63;;;8.78;100.00
19884;BME280;10104;50.732;10.174;2023-04-01T05:06:57;96112.00;;;8.78;100.00
19884;BME280;10104;50.732;10.174;2023-04-01T05:09:19;96112.59;;;8.80;100.00
19884;BME280;10104;50.732;10.174;2023-04-01T05:11:41;96108.53;;;8.77;100.00
19884;BME280;10104;50.732;10.174;2023-04-01T05:14:02;96106.38;;;8.74;100.00
19884;BME280;10104;50.732;10.174;2023-04-01T05:16:24;96115.16;;;8.86;100.00
19884;BME280;10104;50.732;10.174;2023-04-01T05:18:46;96107.84;;;8.88;100.00
19884;BME280;10104;50.732;10.174;2023-04-01T05:21:10;96107.09;;;8.81;100.00
19884;BME280;10104;50.732;10.174;2023-04-01T05:23:32;96100.00;;;8.82;100.00
19884;BME280;10104;50.732;10.174;2023-04-01T05:25:54;96102.56;;;8.88;100.00
19884;BME280;10104;50.732;10.174;2023-04-01T05:28:19;96109.41;;;8.89;100.00
19884;BME280;10104;50.732;10.174;2023-04-01T05:30:41;96107.28;;;8.98;100.00
19884;BME280;10104;50.732;10.174;2023-04-01T05:33:03;96098.88;;;8.89;100.00
19884;BME280;10104;50.732;10.174;2023-04-01T05:35:25;96107.72;;;8.95;100.00
19884;BME280;10104;50.732;10.174;2023-04-01T05:37:46;96092.34;;;8.92;100.00
19884;BME280;10104;50.732;10.174;2023-04-01T05:40:08;96098.50;;;9.04;100.00
19884;BME280;10104;50.732;10.174;2023-04-01T05:42:30;96100.47;;;9.09;100.00
19884;BME280;10104;50.732;10.174;2023-04-01T05:44:51;96097.94;;;9.14;100.00
19884;BME280;10104;50.732;10.174;2023-04-01T05:47:13;96102.44;;;9.13;100.00
19884;BME280;10104;50.732;10.174;2023-04-01T05:49:35;96103.59;;;9.17;100.00
19884;BME280;10104;50.732;10.174;2023-04-01T05:51:56;96101.91;;;9.23;100.00
19884;BME280;10104;50.732;10.174;2023-04-01T05:54:19;96112.25;;;9.24;100.00
19884;BME280;10104;50.732;10.174;2023-04-01T05:56:41;96105.56;;;9.22;100.00
19884;BME280;10104;50.732;10.174;2023-04-01T05:59:02;96101.34;;;9.32;100.00
19884;BME280;10104;50.732;10.174;2023-04-01T06:01:24;96109.78;;;9.41;100.00
19884;BME280;10104;50.732;10.174;2023-04-01T06:03:45;96110.50;;;9.48;99.40
19884;BME280;10104;50.732;10.174;2023-04-01T06:06:20;96109.22;;;9.51;99.17
19884;BME280;10104;50.732;10.174;2023-04-01T06:08:44;96109.47;;;9.49;99.55
19884;BME280;10104;50.732;10.174;2023-04-01T06:11:27;96116.16;;;9.63;99.91
19884;BME280;10104;50.732;10.174;2023-04-01T06:16:29;96116.22;;;9.87;98.46
19884;BME280;10104;50.732;10.174;2023-04-01T06:26:50;96123.25;;;9.93;97.46
19884;BME280;10104;50.732;10.174;2023-04-01T06:34:45;96134.84;;;9.92;98.04
19884;BME280;10104;50.732;10.174;2023-04-01T06:37:22;96125.41;;;9.84;98.35
19884;BME280;10104;50.732;10.174;2023-04-01T06:45:25;96129.19;;;9.88;97.79
19884;BME280;10104;50.732;10.174;2023-04-01T06:47:59;96130.13;;;9.94;98.08
19884;BME280;10104;50.732;10.174;2023-04-01T06:50:32;96113.13;;;9.90;98.67
19884;BME280;10104;50.732;10.174;2023-04-01T06:53:06;96121.28;;;9.88;96.90
19884;BME280;10104;50.732;10.174;2023-04-01T06:55:43;96134.13;;;9.73;97.40
19884;BME280;10104;50.732;10.174;2023-04-01T06:58:18;96142.56;;;9.93;98.66
19884;BME280;10104;50.732;10.174;2023-04-01T07:00:44;96135.97;;;9.84;98.51
19884;BME280;10104;50.732;10.174;2023-04-01T07:03:16;96125.78;;;9.99;97.18
19884;BME280;10104;50.732;10.174;2023-04-01T07:05:40;96128.19;;;10.01;98.62
19884;BME280;10104;50.732;10.174;2023-04-01T07:08:04;96134.63;;;9.93;97.10
19884;BME280;10104;50.732;10.174;2023-04-01T07:13:00;96123.28;;;10.16;97.12
19884;BME280;10104;50.732;10.174;2023-04-01T07:18:38;96128.72;;;10.44;95.08
19884;BME280;10104;50.732;10.174;2023-04-01T07:21:02;96121.56;;;10.45;94.70
19884;BME280;10104;50.732;10.174;2023-04-01T07:23:29;96122.06;;;10.42;95.89
19884;BME280;10104;50.732;10.174;2023-04-01T07:25:56;96126.31;;;10.54;95.13
19884;BME280;10104;50.732;10.174;2023-04-01T07:28:20;96120.88;;;10.73;95.34
19884;BME280;10104;50.732;10.174;2023-04-01T07:34:10;96133.84;;;10.98;92.36
19884;BME280;10104;50.732;10.174;2023-04-01T07:38:59;96142.66;;;11.15;92.64
19884;BME280;10104;50.732;10.174;2023-04-01T07:46:55;96150.84;;;11.53;90.59
19884;BME280;10104;50.732;10.174;2023-04-01T07:52:08;96145.81;;;11.40;90.77
19884;BME280;10104;50.732;10.174;2023-04-01T07:54:41;96159.13;;;11.05;90.89
19884;BME280;10104;50.732;10.174;2023-04-01T07:57:22;96150.75;;;11.36;90.90
19884;BME280;10104;50.732;10.174;2023-04-01T08:03:16;96153.19;;;11.78;90.01
19884;BME280;10104;50.732;10.174;2023-04-01T08:05:57;96153.56;;;11.58;88.73
19884;BME280;10104;50.732;10.174;2023-04-01T08:14:01;96153.34;;;11.88;89.36
19884;BME280;10104;50.732;10.174;2023-04-01T08:16:37;96156.50;;;12.02;88.99
19884;BME280;10104;50.732;10.174;2023-04-01T08:19:20;96165.50;;;12.18;86.95
19884;BME280;10104;50.732;10.174;2023-04-01T08:21:51;96166.03;;;11.86;86.00
19884;BME280;10104;50.732;10.174;2023-04-01T08:24:24;96163.41;;;12.03;88.54
19884;BME280;10104;50.732;10.174;2023-04-01T08:26:53;96165.44;;;12.46;86.55
19884;BME280;10104;50.732;10.174;2023-04-01T08:29:22;96167.69;;;12.21;84.84
19884;BME280;10104;50.732;10.174;2023-04-01T08:31:57;96168.97;;;12.35;83.00
19884;BME280;10104;50.732;10.174;2023-04-01T08:34:31;96158.44;;;12.56;86.54
19884;BME280;10104;50.732;10.174;2023-04-01T08:37:02;96162.06;;;12.50;85.62
19884;BME280;10104;50.732;10.174;2023-04-01T08:39:37;96159.09;;;13.24;83.76
19884;BME280;10104;50.732;10.174;2023-04-01T08:42:15;96158.31;;;13.45;80.12
19884;BME280;10104;50.732;10.174;2023-04-01T08:50:48;96148.34;;;14.16;76.88
19884;BME280;10104;50.732;10.174;2023-04-01T08:53:25;96160.53;;;13.80;71.22
19884;BME280;10104;50.732;10.174;2023-04-01T08:56:06;96159.97;;;13.51;76.45
19884;BME280;10104;50.732;10.174;2023-04-01T09:06:44;96170.16;;;12.61;78.54
19884;BME280;10104;50.732;10.174;2023-04-01T09:20:52;96172.44;;;12.19;82.97
19884;BME280;10104;50.732;10.174;2023-04-01T09:37:34;96185.03;;;12.28;83.21
19884;BME280;10104;50.732;10.174;2023-04-01T09:42:49;96188.75;;;12.44;86.14
19884;BME280;10104;50.732;10.174;2023-04-01T09:45:23;96190.53;;;12.38;84.21
19884;BME280;10104;50.732;10.174;2023-04-01T09:50:56;96192.19;;;12.78;84.00
19884;BME280;10104;50.732;10.174;2023-04-01T09:53:36;96187.94;;;12.77;83.94
19884;BME280;10104;50.732;10.174;2023-04-01T10:01:09;96192.06;;;12.51;84.11
19884;BME280;10104;50.732;10.174;2023-04-01T10:04:04;96193.69;;;12.52;82.58
19884;BME280;10104;50.732;10.174;2023-04-01T10:12:45;96199.84;;;12.41;82.72
19884;BME280;10104;50.732;10.174;2023-04-01T10:15:24;96195.03;;;12.54;83.58
19884;BME280;10104;50.732;10.174;2023-04-01T10:21:52;96201.75;;;12.95;80.26
19884;BME280;10104;50.732;10.174;2023-04-01T10:29:55;96192.00;;;13.01;78.92
19884;BME280;10104;50.732;10.174;2023-04-01T10:32:49;96191.06;;;13.51;79.35
19884;BME280;10104;50.732;10.174;2023-04-01T10:41:51;96193.47;;;13.52;77.27
19884;BME280;10104;50.732;10.174;2023-04-01T10:47:26;96185.84;;;13.17;78.61
19884;BME280;10104;50.732;10.174;2023-04-01T10:50:16;96186.09;;;13.16;80.34
19884;BME280;10104;50.732;10.174;2023-04-01T11:12:52;96197.78;;;13.15;80.41
19884;BME280;10104;50.732;10.174;2023-04-01T11:15:31;96193.03;;;13.17;82.12
19884;BME280;10104;50.732;10.174;2023-04-01T11:18:19;96195.56;;;13.28;84.13
19884;BME280;10104;50.732;10.174;2023-04-01T11:26:42;96209.53;;;13.41;80.67
19884;BME280;10104;50.732;10.174;2023-04-01T11:35:24;96198.47;;;13.27;83.69
19884;BME280;10104;50.732;10.174;2023-04-01T11:38:17;96202.53;;;13.78;84.13
19884;BME280;10104;50.732;10.174;2023-04-01T11:40:47;96200.53;;;13.63;81.72
19884;BME280;10104;50.732;10.174;2023-04-01T11:43:36;96202.34;;;13.85;80.61
19884;BME280;10104;50.732;10.174;2023-04-01T11:46:12;96205.88;;;14.17;82.03
19884;BME280;10104;50.732;10.174;2023-04-01T11:54:52;96212.28;;;14.80;74.47
19884;BME280;10104;50.732;10.174;2023-04-01T12:00:12;96217.47;;;15.49;74.54
19884;BME280;10104;50.732;10.174;2023-04-01T12:03:05;96217.56;;;15.17;73.52
19884;BME280;10104;50.732;10.174;2023-04-01T12:05:37;96210.72;;;14.89;73.64
19884;BME280;10104;50.732;10.174;2023-04-01T12:08:13;96222.09;;;14.74;75.39
19884;BME280;10104;50.732;10.174;2023-04-01T12:10:50;96218.81;;;14.62;75.57
19884;BME280;10104;50.732;10.174;2023-04-01T12:18:53;96221.53;;;14.72;76.41
19884;BME280;10104;50.732;10.174;2023-04-01T12:21:25;96225.84;;;14.78;75.12
19884;BME280;10104;50.732;10.174;2023-04-01T12:26:43;96229.00;;;14.16;76.08
19884;BME280;10104;50.732;10.174;2023-04-01T12:35:15;96240.56;;;13.78;79.59
19884;BME280;10104;50.732;10.174;2023-04-01T12:38:10;96245.91;;;13.78;82.79
19884;BME280;10104;50.732;10.174;2023-04-01T12:40:48;96236.91;;;13.85;80.75
19884;BME280;10104;50.732;10.174;2023-04-01T12:46:25;96239.22;;;13.32;83.43
19884;BME280;10104;50.732;10.174;2023-04-01T12:57:38;96243.13;;;13.68;80.52
19884;BME280;10104;50.732;10.174;2023-04-01T13:16:17;96251.38;;;13.28;80.94
19884;BME280;10104;50.732;10.174;2023-04-01T13:18:53;96253.31;;;13.33;83.77
19884;BME280;10104;50.732;10.174;2023-04-01T13:24:23;96265.63;;;13.83;79.52
19884;BME280;10104;50.732;10.174;2023-04-01T13:26:53;96261.44;;;14.13;80.78
19884;BME280;10104;50.732;10.174;2023-04-01T13:39:41;96265.31;;;13.79;82.71
19884;BME280;10104;50.732;10.174;2023-04-01T13:42:12;96273.16;;;14.12;83.13
19884;BME280;10104;50.732;10.174;2023-04-01T13:55:31;96275.47;;;14.04;84.09
19884;BME280;10104;50.732;10.174;2023-04-01T13:58:13;96280.91;;;13.92;85.64
19884;BME280;10104;50.732;10.174;2023-04-01T14:01:08;96287.84;;;13.50;85.76
19884;BME280;10104;50.732;10.174;2023-04-01T14:04:42;96274.72;;;13.43;87.44
19884;BME280;10104;50.732;10.174;2023-04-01T14:15:14;96291.59;;;13.32;89.16
19884;BME280;10104;50.732;10.174;2023-04-01T14:18:18;96289.69;;;13.71;88.35
19884;BME280;10104;50.732;10.174;2023-04-01T14:26:57;96288.06;;;14.13;86.64
19884;BME280;10104;50.732;10.174;2023-04-01T14:29:52;96297.00;;;14.02;86.82
19884;BME280;10104;50.732;10.174;2023-04-01T14:40:56;96297.41;;;14.16;85.65
19884;BME280;10104;50.732;10.174;2023-04-01T14:45:55;96311.03;;;14.41;83.69
19884;BME280;10104;50.732;10.174;2023-04-01T14:48:32;96304.13;;;14.45;85.04
19884;BME280;10104;50.732;10.174;2023-04-01T14:51:03;96304.50;;;14.32;84.42
19884;BME280;10104;50.732;10.174;2023-04-01T14:53:33;96308.25;;;14.09;85.33
19884;BME280;10104;50.732;10.174;2023-04-01T14:56:01;96307.13;;;14.27;85.61
19884;BME280;10104;50.732;10.174;2023-04-01T14:58:38;96306.16;;;13.90;85.42
19884;BME280;10104;50.732;10.174;2023-04-01T15:03:29;96318.03;;;14.04;87.16
19884;BME280;10104;50.732;10.174;2023-04-01T15:05:59;96311.28;;;14.67;86.21
19884;BME280;10104;50.732;10.174;2023-04-01T15:08:32;96314.09;;;15.19;81.77
19884;BME280;10104;50.732;10.174;2023-04-01T15:11:04;96314.69;;;15.68;78.59
19884;BME280;10104;50.732;10.174;2023-04-01T15:21:32;96330.66;;;14.89;81.36
19884;BME280;10104;50.732;10.174;2023-04-01T15:24:15;96330.53;;;14.47;81.95
19884;BME280;10104;50.732;10.174;2023-04-01T15:27:01;96325.75;;;14.49;82.00
19884;BME280;10104;50.732;10.174;2023-04-01T15:29:40;96331.16;;;14.10;84.49
19884;BME280;10104;50.732;10.174;2023-04-01T15:46:09;96350.34;;;13.91;84.54
19884;BME280;10104;50.732;10.174;2023-04-01T15:51:46;96346.75;;;14.02;86.85
19884;BME280;10104;50.732;10.174;2023-04-01T15:56:45;96357.56;;;13.95;86.34
19884;BME280;10104;50.732;10.174;2023-04-01T16:02:18;96369.38;;;13.83;87.33
19884;BME280;10104;50.732;10.174;2023-04-01T16:05:23;96365.16;;;13.65;87.00
19884;BME280;10104;50.732;10.174;2023-04-01T16:15:30;96378.28;;;13.71;87.59
19884;BME280;10104;50.732;10.174;2023-04-01T16:20:39;96378.81;;;13.35;89.70
19884;BME280;10104;50.732;10.174;2023-04-01T16:23:24;96386.63;;;13.25;89.38
19884;BME280;10104;50.732;10.174;2023-04-01T16:25:55;96397.63;;;13.00;89.25
19884;BME280;10104;50.732;10.174;2023-04-01T16:28:49;96390.13;;;12.97;88.82
19884;BME280;10104;50.732;10.174;2023-04-01T16:34:06;96397.06;;;12.98;88.52
19884;BME280;10104;50.732;10.174;2023-04-01T16:37:10;96399.03;;;12.91;90.57
19884;BME280;10104;50.732;10.174;2023-04-01T16:39:52;96405.75;;;12.93;91.17
19884;BME280;10104;50.732;10.174;2023-04-01T16:45:00;96414.59;;;12.82;92.26
19884;BME280;10104;50.732;10.174;2023-04-01T16:47:33;96410.09;;;12.83;92.27
19884;BME280;10104;50.732;10.174;2023-04-01T16:58:23;96429.44;;;13.12;91.51
19884;BME280;10104;50.732;10.174;2023-04-01T17:00:50;96434.47;;;13.25;91.18
19884;BME280;10104;50.732;10.174;2023-04-01T17:03:25;96433.81;;;13.34;90.50
19884;BME280;10104;50.732;10.174;2023-04-01T17:05:50;96434.72;;;13.23;90.91
19884;BME280;10104;50.732;10.174;2023-04-01T17:08:26;96433.69;;;13.24;90.81
19884;BME280;10104;50.732;10.174;2023-04-01T17:10:53;96439.88;;;13.30;90.74
19884;BME280;10104;50.732;10.174;2023-04-01T17:23:50;96453.09;;;12.68;93.49
19884;BME280;10104;50.732;10.174;2023-04-01T17:28:58;96470.47;;;12.87;92.55
19884;BME280;10104;50.732;10.174;2023-04-01T17:31:53;96471.44;;;12.98;91.82
19884;BME280;10104;50.732;10.174;2023-04-01T17:34:35;96478.00;;;13.07;91.23
19884;BME280;10104;50.732;10.174;2023-04-01T17:37:26;96479.94;;;13.12;91.17
19884;BME280;10104;50.732;10.174;2023-04-01T17:42:41;96482.56;;;13.23;90.62
19884;BME280;10104;50.732;10.174;2023-04-01T17:48:16;96487.72;;;13.13;90.56
19884;BME280;10104;50.732;10.174;2023-04-01T17:50:52;96491.88;;;12.97;91.76
19884;BME280;10104;50.732;10.174;2023-04-01T17:58:46;96495.09;;;12.83;93.15
19884;BME280;10104;50.732;10.174;2023-04-01T18:01:21;96500.50;;;12.88;92.41
19884;BME280;10104;50.732;10.174;2023-04-01T18:06:47;96512.59;;;12.95;92.11
19884;BME280;10104;50.732;10.174;2023-04-01T18:09:48;96509.34;;;12.93;91.95
19884;BME280;10104;50.732;10.174;2023-04-01T18:15:14;96523.22;;;12.55;94.73
19884;BME280;10104;50.732;10.174;2023-04-01T18:17:45;96524.69;;;12.63;94.09
19884;BME280;10104;50.732;10.174;2023-04-01T18:20:36;96531.50;;;12.71;93.48
19884;BME280;10104;50.732;10.174;2023-04-01T18:23:03;96536.94;;;12.64;94.07
19884;BME280;10104;50.732;10.174;2023-04-01T18:25:32;96540.03;;;12.61;94.05
19884;BME280;10104;50.732;10.174;2023-04-01T18:28:25;96544.72;;;12.19;96.89
19884;BME280;10104;50.732;10.174;2023-04-01T18:31:26;96547.47;;;11.89;98.55
19884;BME280;10104;50.732;10.174;2023-04-01T18:34:02;96546.81;;;11.64;100.00
19884;BME280;10104;50.732;10.174;2023-04-01T18:36:47;96556.03;;;11.61;100.00
19884;BME280;10104;50.732;10.174;2023-04-01T18:39:30;96565.28;;;11.29;100.00
19884;BME280;10104;50.732;10.174;2023-04-01T18:44:49;96573.69;;;11.26;100.00
19884;BME280;10104;50.732;10.174;2023-04-01T18:47:38;96573.31;;;11.22;100.00
19884;BME280;10104;50.732;10.174;2023-04-01T18:53:22;96576.06;;;11.46;100.00
19884;BME280;10104;50.732;10.174;2023-04-01T18:56:01;96583.09;;;11.52;100.00
19884;BME280;10104;50.732;10.174;2023-04-01T19:03:23;96598.56;;;11.85;98.88
19884;BME280;10104;50.732;10.174;2023-04-01T19:05:48;96602.16;;;11.90;98.06
19884;BME280;10104;50.732;10.174;2023-04-01T19:11:06;96618.91;;;12.14;96.36
19884;BME280;10104;50.732;10.174;2023-04-01T19:13:44;96615.06;;;12.10;96.24
19884;BME280;10104;50.732;10.174;2023-04-01T19:19:01;96617.38;;;12.18;96.15